Time;durP1;ratioP1;P1;durP2;ratioP2;P2;SDS_P1;SDS_P2;PMS_P1;PMS_P2;Temp;Humidity;BMP_temperature;BMP_pressure;BME280_temperature;BME280_humidity;BME280_pressure;Samples;Min_cycle;Max_cycle;Signal;HPM_P1;HPM_P2
2023/12/07 00:28:51;;;;;;;21.70;8.80;;;;;;;1.65;60.33;101626.54;106190;1251;72466;-79
2023/12/07 00:31:26;;;;;;;20.40;9.80;;;;;;;1.51;60.97;101628.66;106327;1257;68871;-79
2023/12/07 00:34:00;;;;;;;21.30;9.50;;;;;;;1.48;61.14;101628.68;106243;1253;72698;-79
2023/12/07 00:36:40;;;;;;;17.90;8.30;;;;;;;1.48;61.19;101632.29;106573;1253;60443;-80
2023/12/07 00:39:20;;;;;;;22.20;8.70;;;;;;;1.48;61.12;101636.02;106348;1253;60643;-78
2023/12/07 00:42:00;;;;;;;22.70;8.90;;;;;;;1.52;61.10;101634.94;106282;1253;73875;-79
2023/12/07 00:44:41;;;;;;;22.90;9.20;;;;;;;1.62;60.66;101631.81;106303;1253;67157;-80
2023/12/07 00:47:20;;;;;;;21.20;8.30;;;;;;;1.48;61.06;101637.09;106196;1258;71187;-79
2023/12/07 00:50:00;;;;;;;15.60;7.60;;;;;;;1.50;61.20;101633.39;106343;1258;60508;-79
2023/12/07 00:52:40;;;;;;;16.30;7.80;;;;;;;1.86;60.22;101629.69;109327;1251;60474;-79
2023/12/07 00:55:20;;;;;;;15.00;7.30;;;;;;;1.98;59.27;101634.06;109341;1251;73931;-79
2023/12/07 00:58:01;;;;;;;17.20;8.30;;;;;;;1.99;59.23;101631.14;106685;1256;67093;-78
2023/12/07 01:00:41;;;;;;;16.80;8.10;;;;;;;2.02;59.13;101631.16;107010;1251;72643;-78
2023/12/07 01:03:18;;;;;;;13.90;7.10;;;;;;;2.07;58.71;101626.98;106573;1253;60536;-78
2023/12/07 01:05:52;;;;;;;16.00;7.50;;;;;;;2.04;58.62;101627.88;106476;1253;60518;-80
2023/12/07 01:08:26;;;;;;;14.10;8.30;;;;;;;2.08;58.69;101627.61;106622;1251;72999;-80
2023/12/07 01:10:59;;;;;;;16.80;8.40;;;;;;;2.24;58.13;101626.33;107242;1251;68530;-80
2023/12/07 01:13:33;;;;;;;18.60;8.10;;;;;;;2.30;57.66;101621.36;109240;1253;71802;-80
2023/12/07 01:16:07;;;;;;;17.90;8.00;;;;;;;2.27;57.49;101620.34;107042;1257;60431;-81
2023/12/07 01:18:41;;;;;;;17.80;7.30;;;;;;;2.20;57.71;101620.02;106715;1253;60410;-79
2023/12/07 01:21:14;;;;;;;16.10;8.40;;;;;;;2.23;57.75;101620.55;106453;1253;72736;-81
2023/12/07 01:23:49;;;;;;;14.80;7.80;;;;;;;2.22;57.25;101618.48;106393;1253;67385;-80
2023/12/07 01:26:32;;;;;;;16.80;7.30;;;;;;;2.34;56.97;101613.20;106579;1254;72714;-79
2023/12/07 01:29:05;;;;;;;19.10;8.80;;;;;;;2.35;56.65;101614.29;106570;1254;61721;-80
2023/12/07 01:31:40;;;;;;;16.80;7.50;;;;;;;2.12;56.67;101616.44;106413;1251;60626;-80
2023/12/07 01:34:14;;;;;;;16.00;7.20;;;;;;;1.53;58.53;101621.94;106661;1256;73856;-81
2023/12/07 01:36:48;;;;;;;14.90;6.90;;;;;;;1.41;59.07;101621.80;106593;1257;68375;-79
2023/12/07 01:39:22;;;;;;;13.30;7.20;;;;;;;1.36;59.13;101618.52;106694;1252;71448;-81
2023/12/07 01:41:55;;;;;;;16.00;7.30;;;;;;;1.24;59.57;101616.02;106763;1257;60547;-79
2023/12/07 01:44:29;;;;;;;14.00;6.70;;;;;;;1.22;59.77;101612.77;106592;1256;60351;-79
2023/12/07 01:47:03;;;;;;;16.70;7.50;;;;;;;1.35;59.29;101612.09;106593;1257;73851;-81
2023/12/07 01:49:37;;;;;;;14.10;6.50;;;;;;;1.12;59.68;101610.05;106577;1251;68448;-79
2023/12/07 01:52:10;;;;;;;16.60;7.40;;;;;;;1.27;59.40;101612.53;106560;1253;74099;-80
2023/12/07 01:54:44;;;;;;;16.10;7.90;;;;;;;1.29;58.98;101608.54;106497;1251;60478;-81
2023/12/07 01:57:18;;;;;;;17.30;7.40;;;;;;;1.22;59.38;101601.74;106379;1253;60470;-77
2023/12/07 01:59:52;;;;;;;16.30;7.10;;;;;;;1.13;59.60;101602.39;106012;1258;73824;-79
2023/12/07 02:02:25;;;;;;;16.40;6.60;;;;;;;1.24;59.16;101597.88;106737;1256;67275;-78
2023/12/07 02:04:54;;;;;;;16.10;7.70;;;;;;;1.20;59.33;101598.75;106005;1258;73158;-78
2023/12/07 02:07:23;;;;;;;21.60;8.50;;;;;;;1.12;59.78;101597.53;106385;1251;61616;-79
2023/12/07 02:09:50;;;;;;;13.60;6.20;;;;;;;1.01;60.18;101594.55;106208;1261;60338;-79
2023/12/07 02:12:24;;;;;;;13.30;6.40;;;;;;;1.06;60.02;101590.59;106420;1251;72559;-79
2023/12/07 02:14:59;;;;;;;16.00;7.30;;;;;;;1.06;59.93;101591.74;106047;1253;68440;-79
2023/12/07 02:17:38;;;;;;;19.40;8.20;;;;;;;1.03;59.93;101592.77;106331;1253;72714;-79
2023/12/07 02:20:39;;;;;;;14.50;6.90;;;;;;;0.95;60.35;101597.63;106301;1253;60596;-79
2023/12/07 02:23:07;;;;;;;15.00;7.50;;;;;;;0.99;59.98;101593.77;106349;1256;60331;-80
2023/12/07 02:28:52;;;;;;;13.70;7.30;;;;;;;1.06;59.39;101592.53;105956;1253;68373;-80
2023/12/07 02:31:26;;;;;;;19.30;8.30;;;;;;;1.05;59.30;101596.41;105937;1254;71126;-80
2023/12/07 02:34:00;;;;;;;19.60;7.90;;;;;;;0.97;59.81;101600.25;105967;1253;60543;-78
2023/12/07 02:36:35;;;;;;;17.50;8.20;;;;;;;0.96;59.94;101596.71;106027;1259;60436;-78
2023/12/07 02:39:09;;;;;;;18.60;7.50;;;;;;;0.95;60.07;101594.09;105923;1257;73863;-78
2023/12/07 02:41:42;;;;;;;18.90;7.30;;;;;;;1.01;59.77;101596.36;106020;1257;66773;-77
2023/12/07 02:44:16;;;;;;;19.90;8.80;;;;;;;0.86;60.21;101596.79;105787;1255;72145;-79
2023/12/07 02:46:50;;;;;;;19.30;8.80;;;;;;;0.85;60.49;101594.05;105770;1253;60613;-79
2023/12/07 02:49:24;;;;;;;18.70;8.10;;;;;;;0.86;60.40;101589.02;106150;1251;60379;-78
2023/12/07 02:52:04;;;;;;;16.50;7.30;;;;;;;0.84;60.51;101593.24;106259;1253;72573;-78
2023/12/07 02:54:44;;;;;;;16.00;7.10;;;;;;;0.89;60.07;101589.38;106117;1258;68679;-79
2023/12/07 02:57:24;;;;;;;17.00;7.40;;;;;;;1.03;59.86;101588.10;106208;1255;70664;-77
2023/12/07 03:00:07;;;;;;;18.10;9.20;;;;;;;1.09;59.59;101591.48;106198;1256;60530;-79
2023/12/07 03:02:47;;;;;;;14.60;7.10;;;;;;;1.05;59.31;101592.08;106489;1251;60638;-78
2023/12/07 03:05:27;;;;;;;18.10;6.70;;;;;;;1.05;59.52;101589.73;106233;1251;72639;-80
2023/12/07 03:08:07;;;;;;;18.10;7.60;;;;;;;1.07;59.96;101591.71;106191;1253;68656;-80
2023/12/07 03:10:47;;;;;;;16.40;8.10;;;;;;;1.16;59.91;101594.10;106043;1257;71411;-80
2023/12/07 03:13:26;;;;;;;16.80;7.30;;;;;;;1.16;60.49;101591.89;106243;1252;61661;-78
2023/12/07 03:16:04;;;;;;;15.30;8.40;;;;;;;1.25;60.52;101593.59;106239;1253;60592;-78
2023/12/07 03:18:38;;;;;;;17.90;7.60;;;;;;;1.28;60.95;101595.89;106140;1257;73858;-80
2023/12/07 03:21:12;;;;;;;17.50;8.10;;;;;;;1.32;61.76;101598.63;106267;1253;67677;-78
2023/12/07 03:23:45;;;;;;;18.70;8.40;;;;;;;1.43;62.01;101600.35;106458;1253;71852;-78
2023/12/07 03:26:19;;;;;;;16.00;8.10;;;;;;;1.55;61.67;101592.70;106306;1251;60511;-78
2023/12/07 03:28:53;;;;;;;15.60;7.80;;;;;;;1.66;61.43;101594.92;106008;1258;60426;-80
2023/12/07 03:31:26;;;;;;;19.90;8.70;;;;;;;1.81;60.79;101594.39;106111;1251;73869;-80
2023/12/07 03:34:01;;;;;;;16.20;8.00;;;;;;;1.85;60.73;101594.56;106514;1256;67105;-80
2023/12/07 03:36:35;;;;;;;16.20;7.60;;;;;;;2.02;60.37;101591.01;106182;1253;72745;-80
2023/12/07 03:39:09;;;;;;;16.50;7.20;;;;;;;2.11;60.02;101587.81;106238;1257;60469;-80
2023/12/07 03:41:37;;;;;;;17.80;8.40;;;;;;;2.16;59.75;101591.83;106254;1253;60295;-80
2023/12/07 03:44:05;;;;;;;21.10;8.30;;;;;;;2.25;59.48;101599.45;106541;1253;73899;-78
2023/12/07 03:46:41;;;;;;;17.20;7.80;;;;;;;2.25;59.21;101601.52;106485;1253;68406;-80
2023/12/07 03:49:15;;;;;;;15.40;7.80;;;;;;;2.32;59.28;101600.33;106513;1253;71796;-79
2023/12/07 03:51:49;;;;;;;18.70;7.30;;;;;;;2.36;58.93;101594.97;106540;1252;62134;-78
2023/12/07 03:54:22;;;;;;;20.60;8.70;;;;;;;2.38;58.85;101595.35;106600;1252;60432;-80
2023/12/07 03:56:56;;;;;;;27.80;11.90;;;;;;;2.45;58.84;101592.37;106420;1253;73824;-81
2023/12/07 03:59:30;;;;;;;29.90;10.50;;;;;;;2.51;58.55;101593.36;106645;1251;68676;-81
2023/12/07 04:02:03;;;;;;;17.50;8.10;;;;;;;2.47;58.64;101597.07;106869;1253;72680;-78
2023/12/07 04:04:38;;;;;;;28.30;10.30;;;;;;;2.53;58.63;101596.04;106424;1253;62187;-80
2023/12/07 04:07:06;;;;;;;24.30;9.80;;;;;;;2.67;58.16;101601.30;106346;1252;59626;-79
2023/12/07 04:09:36;;;;;;;18.90;7.90;;;;;;;2.71;57.88;101601.23;106530;1251;72727;-80
2023/12/07 04:12:14;;;;;;;19.30;8.70;;;;;;;2.60;57.99;101597.56;106491;1253;68427;-79
2023/12/07 04:14:52;;;;;;;17.70;8.50;;;;;;;2.58;58.33;101595.10;106386;1258;72432;-81
2023/12/07 04:17:30;;;;;;;15.80;7.90;;;;;;;2.26;59.35;101600.62;106344;1253;60659;-79
2023/12/07 04:20:09;;;;;;;17.30;7.30;;;;;;;2.34;59.74;101597.86;106345;1253;60645;-79
2023/12/07 04:22:48;;;;;;;17.50;8.30;;;;;;;2.47;59.33;101595.58;106456;1253;71916;-79
2023/12/07 04:25:22;;;;;;;15.80;7.90;;;;;;;2.33;59.74;101593.98;106844;1255;67584;-81
2023/12/07 04:27:57;;;;;;;20.50;9.50;;;;;;;2.11;60.57;101589.55;106854;1256;71437;-81
2023/12/07 08:28:40;;;;;;;25.30;10.90;;;;;;;3.88;77.06;101612.34;106461;1253;68399;-79
2023/12/07 08:31:17;;;;;;;21.90;10.70;;;;;;;3.94;77.20;101607.98;106422;1253;74718;-79
2023/12/07 08:33:53;;;;;;;26.50;10.30;;;;;;;4.02;76.95;101605.70;106520;1259;60532;-79
2023/12/07 08:36:21;;;;;;;24.80;11.80;;;;;;;4.01;77.34;101597.70;106577;1253;62308;-79
2023/12/07 08:38:56;;;;;;;21.60;10.70;;;;;;;4.05;77.62;101596.26;106666;1253;75029;-80
2023/12/07 08:41:32;;;;;;;21.90;10.80;;;;;;;4.00;78.20;101594.66;106626;1256;70997;-80
2023/12/07 08:44:05;;;;;;;24.10;12.20;;;;;;;4.03;78.33;101592.85;106567;1260;74036;-79
2023/12/07 08:46:35;;;;;;;25.20;11.20;;;;;;;4.02;78.48;101589.76;109338;1253;59069;-80
2023/12/07 08:51:59;;;;;;;18.50;9.70;;;;;;;4.18;78.58;101579.97;102968;1292;600622;-79
2023/12/07 08:54:54;;;;;;;20.90;10.00;;;;;;;4.13;78.44;101576.15;105666;1267;61756;-79
2023/12/07 08:57:22;;;;;;;20.20;9.30;;;;;;;4.16;78.75;101576.90;105417;1270;60073;-79
2023/12/07 08:59:59;;;;;;;20.00;9.70;;;;;;;4.19;78.64;101577.85;105877;1269;74458;-80
2023/12/07 09:02:34;;;;;;;22.60;10.70;;;;;;;4.14;78.93;101572.58;105838;1267;67268;-79
2023/12/07 09:05:22;;;;;;;24.70;10.90;;;;;;;4.24;78.46;101574.94;105673;1266;199011;-82
2023/12/07 09:07:49;;;;;;;24.00;11.20;;;;;;;4.29;78.34;101571.31;105707;1267;59465;-82
2023/12/07 09:10:24;;;;;;;21.30;10.80;;;;;;;4.32;78.01;101574.30;105888;1263;60169;-82
2023/12/07 09:13:00;;;;;;;24.30;11.10;;;;;;;4.39;77.61;101569.71;105814;1265;72240;-82
2023/12/07 09:15:37;;;;;;;23.70;9.90;;;;;;;4.43;76.95;101577.30;105741;1263;67394;-82
2023/12/07 09:18:11;;;;;;;21.40;10.10;;;;;;;4.36;77.44;101578.34;105901;1268;71581;-82
2023/12/07 09:20:48;;;;;;;23.60;10.90;;;;;;;4.28;78.14;101577.30;106169;1260;60847;-82
2023/12/07 09:23:22;;;;;;;23.60;11.10;;;;;;;4.29;78.69;101579.09;106141;1257;62028;-83
2023/12/07 09:25:55;;;;;;;20.70;9.60;;;;;;;4.22;79.14;101579.60;106252;1257;71222;-82
2023/12/07 09:28:29;;;;;;;22.70;11.70;;;;;;;4.21;79.69;101573.07;106225;1257;67438;-82
2023/12/07 09:31:03;;;;;;;22.90;9.90;;;;;;;4.12;80.67;101566.75;106580;1259;71388;-83
2023/12/07 09:33:37;;;;;;;20.70;9.40;;;;;;;4.12;81.34;101566.20;106239;1257;61185;-81
2023/12/07 09:36:11;;;;;;;21.00;9.00;;;;;;;4.10;81.60;101564.75;106387;1257;60042;-82
2023/12/07 09:38:45;;;;;;;22.30;9.90;;;;;;;4.11;82.59;101560.38;106354;1260;73475;-82
2023/12/07 09:41:20;;;;;;;23.10;9.70;;;;;;;4.14;82.48;101558.63;106281;1260;68378;-82
2023/12/07 09:43:55;;;;;;;19.80;9.90;;;;;;;4.11;83.24;101560.43;106243;1260;74099;-83
2023/12/07 09:46:27;;;;;;;20.40;9.40;;;;;;;4.13;83.12;101559.30;106111;1260;60545;-80
2023/12/07 09:49:01;;;;;;;;;;;;;;;4.18;82.66;101558.50;106444;1257;59230;-81
2023/12/07 09:51:35;;;;;;;21.90;10.10;;;;;;;4.19;82.81;101555.67;106146;1256;74167;-81
2023/12/07 09:54:06;;;;;;;20.60;11.00;;;;;;;4.11;83.57;101559.84;106211;1257;66132;-81
2023/12/07 09:56:39;;;;;;;18.60;9.30;;;;;;;4.17;83.43;101563.05;106304;1257;74981;-81
2023/12/07 09:59:13;;;;;;;25.10;10.90;;;;;;;4.25;82.81;101556.09;106076;1261;61264;-81
2023/12/07 10:01:47;;;;;;;23.80;10.70;;;;;;;4.23;82.74;101558.15;106195;1257;59535;-81
2023/12/07 10:04:25;;;;;;;20.50;10.10;;;;;;;4.25;82.80;101558.24;106192;1257;71601;-82
2023/12/07 10:07:00;;;;;;;21.20;10.60;;;;;;;4.34;82.40;101556.78;106163;1257;69254;-80
2023/12/07 10:09:39;;;;;;;22.00;10.30;;;;;;;4.34;82.13;101548.02;106040;1257;73695;-80
2023/12/07 10:12:13;;;;;;;21.10;10.20;;;;;;;4.55;80.74;101546.44;106120;1256;59749;-78
2023/12/07 10:14:46;;;;;;;23.00;9.70;;;;;;;4.68;79.53;101542.72;106052;1257;60200;-80
2023/12/07 10:17:20;;;;;;;19.90;9.70;;;;;;;4.75;78.65;101541.50;106062;1257;73687;-81
2023/12/07 10:20:08;;;;;;;17.90;8.50;;;;;;;4.78;78.12;101539.27;106073;1260;70144;-81
2023/12/07 10:22:42;;;;;;;23.90;11.30;;;;;;;4.76;78.97;101542.95;106046;1260;72745;-82
2023/12/07 10:25:16;;;;;;;21.60;9.20;;;;;;;4.66;79.61;101538.61;106124;1257;60473;-81
2023/12/07 10:27:52;;;;;;;21.40;11.30;;;;;;;4.76;79.56;101535.29;105965;1258;62356;-80
2023/12/07 10:30:27;;;;;;;24.20;10.20;;;;;;;4.91;78.48;101533.98;106159;1257;74124;-80
2023/12/07 10:33:09;;;;;;;20.70;10.70;;;;;;;5.01;77.41;101534.30;106109;1257;68672;-80
2023/12/07 10:35:43;;;;;;;17.50;9.00;;;;;;;4.97;77.07;101529.85;105985;1257;74643;-81
2023/12/07 10:38:18;;;;;;;20.80;10.20;;;;;;;4.48;80.56;101524.22;106024;1257;59661;-81
2023/12/07 10:41:03;;;;;;;21.90;9.90;;;;;;;4.28;83.14;101521.89;106299;1257;59810;-81
2023/12/07 10:43:40;;;;;;;23.60;11.00;;;;;;;4.49;82.21;101516.06;106001;1257;72023;-82
2023/12/07 10:46:18;;;;;;;21.90;10.20;;;;;;;4.57;81.68;101516.03;106022;1257;71137;-82
2023/12/07 10:49:00;;;;;;;20.00;10.10;;;;;;;4.76;79.75;101516.83;106183;1263;74807;-82
2023/12/07 10:51:38;;;;;;;20.40;10.00;;;;;;;4.40;82.10;101516.61;106034;1257;62145;-79
2023/12/07 10:54:15;;;;;;;22.00;10.40;;;;;;;4.38;83.10;101518.46;106144;1260;62124;-81
2023/12/07 10:56:52;;;;;;;23.50;10.20;;;;;;;4.40;83.14;101518.33;106093;1257;72729;-79
2023/12/07 10:59:25;;;;;;;24.70;10.70;;;;;;;4.44;82.94;101523.40;106008;1258;68849;-79
2023/12/07 11:02:06;;;;;;;18.50;9.10;;;;;;;4.52;82.72;101518.50;106034;1257;74859;-80
2023/12/07 11:04:41;;;;;;;23.10;11.10;;;;;;;4.52;82.91;101518.55;106114;1260;61166;-79
2023/12/07 11:07:18;;;;;;;25.30;11.90;;;;;;;4.45;83.37;101520.02;106104;1258;59542;-79
2023/12/07 11:09:58;;;;;;;19.00;10.10;;;;;;;4.45;83.93;101514.77;106049;1260;73559;-79
2023/12/07 11:12:45;;;;;;;20.40;9.60;;;;;;;4.49;83.97;101511.93;106074;1257;70347;-79
2023/12/07 11:15:19;;;;;;;21.30;11.10;;;;;;;4.47;84.14;101507.65;105936;1257;74956;-79
2023/12/07 11:17:55;;;;;;;20.70;9.20;;;;;;;4.50;84.48;101501.67;106106;1257;60554;-79
2023/12/07 11:20:49;;;;;;;22.80;10.80;;;;;;;4.54;84.22;101500.30;106100;1260;59525;-79
2023/12/07 11:23:23;;;;;;;22.80;10.70;;;;;;;4.55;84.26;101504.00;106051;1260;73969;-80
2023/12/07 11:25:57;;;;;;;21.80;10.00;;;;;;;4.60;84.36;101501.15;106203;1257;70522;-81
2023/12/07 11:28:41;;;;;;;20.60;9.40;;;;;;;4.65;84.37;101502.84;106028;1257;74720;-81
2023/12/07 11:31:15;;;;;;;20.80;9.70;;;;;;;4.78;83.84;101504.37;105974;1257;60743;-81
2023/12/07 11:33:49;;;;;;;20.50;9.40;;;;;;;5.06;81.63;101500.52;106128;1257;62101;-79
2023/12/07 11:36:23;;;;;;;23.20;10.30;;;;;;;4.98;82.58;101496.89;105985;1257;74239;-79
2023/12/07 11:39:07;;;;;;;20.70;10.50;;;;;;;5.14;81.70;101491.80;106132;1257;70601;-81
2023/12/07 11:41:45;;;;;;;22.80;11.30;;;;;;;4.90;83.32;101497.48;106050;1258;73921;-81
2023/12/07 11:44:19;;;;;;;24.00;10.10;;;;;;;4.92;83.97;101494.19;105986;1258;60467;-80
2023/12/07 11:46:52;;;;;;;22.30;10.00;;;;;;;4.79;85.00;101493.11;106439;1256;60086;-80
2023/12/07 11:49:26;;;;;;;20.20;10.40;;;;;;;4.74;85.83;101489.06;106104;1257;75622;-80
2023/12/07 11:52:15;;;;;;;21.50;9.70;;;;;;;4.85;85.56;101495.00;106084;1257;70283;-80
2023/12/07 11:54:49;;;;;;;17.60;9.30;;;;;;;5.06;84.56;101495.59;106212;1257;74909;-80
2023/12/07 11:57:24;;;;;;;18.70;10.00;;;;;;;4.85;86.25;101492.05;106117;1257;62692;-81
2023/12/07 11:59:59;;;;;;;19.30;9.60;;;;;;;4.90;86.58;101485.52;106134;1258;61254;-80
2023/12/07 12:02:36;;;;;;;19.10;8.30;;;;;;;4.90;87.08;101485.77;106010;1257;71805;-80
2023/12/07 12:05:10;;;;;;;17.20;8.60;;;;;;;4.88;87.92;101485.91;106116;1260;70720;-80
2023/12/07 12:07:44;;;;;;;19.20;8.90;;;;;;;4.88;88.42;101483.41;106195;1257;71621;-80
2023/12/07 12:10:19;;;;;;;17.70;8.40;;;;;;;4.91;87.78;101491.63;106685;1254;62782;-78
2023/12/07 12:12:56;;;;;;;16.80;8.50;;;;;;;4.88;88.30;101487.91;106924;1256;61132;-79
2023/12/07 12:15:30;;;;;;;16.80;8.10;;;;;;;5.13;86.77;101484.14;106565;1251;75195;-79
2023/12/07 12:18:04;;;;;;;18.50;7.80;;;;;;;5.15;85.86;101485.30;106342;1257;67274;-79
2023/12/07 12:20:38;;;;;;;20.50;9.80;;;;;;;5.07;86.05;101485.35;106404;1254;73807;-79
2023/12/07 12:23:12;;;;;;;15.50;8.00;;;;;;;5.02;86.42;101493.63;106715;1254;59665;-80
2023/12/07 12:25:46;;;;;;;15.90;8.70;;;;;;;5.03;86.22;101492.79;106583;1254;60018;-81
2023/12/07 12:28:22;;;;;;;15.60;8.80;;;;;;;5.06;86.39;101491.44;106422;1259;75187;-82
2023/12/07 20:31:13;;;;;;;12.10;7.00;;;;;;;6.42;84.45;101444.48;106397;1256;70009;-83
2023/12/07 20:33:47;;;;;;;15.00;7.60;;;;;;;6.53;83.88;101446.73;106591;1256;72205;-83
2023/12/07 20:36:22;;;;;;;12.30;7.50;;;;;;;6.45;84.05;101447.54;106452;1253;60440;-83
2023/12/07 20:38:50;;;;;;;15.20;8.60;;;;;;;6.49;84.40;101447.06;106537;1254;61960;-82
2023/12/07 20:41:24;;;;;;;15.00;8.80;;;;;;;6.49;84.14;101444.73;106359;1257;75158;-81
2023/12/07 20:43:59;;;;;;;14.00;7.50;;;;;;;6.49;84.18;101442.89;106389;1254;70818;-81
2023/12/07 20:46:33;;;;;;;16.10;9.00;;;;;;;6.38;84.99;101444.96;106537;1254;71472;-81
2023/12/07 20:49:01;;;;;;;13.90;8.10;;;;;;;6.30;85.93;101442.27;106417;1254;61900;-81
2023/12/07 20:51:35;;;;;;;14.60;8.20;;;;;;;6.32;85.82;101442.39;106647;1254;60903;-81
2023/12/07 20:54:09;;;;;;;16.90;7.90;;;;;;;6.35;85.72;101443.56;106478;1255;75917;-81
2023/12/07 20:56:43;;;;;;;17.00;9.30;;;;;;;6.24;86.25;101442.86;106482;1254;68679;-80
2023/12/07 20:59:11;;;;;;;12.60;8.30;;;;;;;6.31;86.13;101437.59;106483;1254;73571;-81
2023/12/07 21:01:45;;;;;;;15.20;8.50;;;;;;;6.32;85.71;101440.02;106341;1254;60505;-81
2023/12/07 21:04:19;;;;;;;17.70;9.50;;;;;;;6.44;84.99;101433.52;106434;1254;60800;-81
2023/12/07 21:06:47;;;;;;;16.80;9.20;;;;;;;6.68;82.99;101432.11;106303;1257;73904;-81
2023/12/07 21:09:17;;;;;;;15.90;8.70;;;;;;;6.76;81.83;101429.46;106412;1256;69767;-81
2023/12/07 21:11:51;;;;;;;15.50;8.80;;;;;;;6.73;82.06;101432.64;106334;1254;73821;-81
2023/12/07 21:14:25;;;;;;;14.20;7.90;;;;;;;6.80;81.02;101431.36;106393;1256;60508;-80
2023/12/07 21:16:53;;;;;;;15.10;7.70;;;;;;;6.85;80.75;101429.38;106397;1256;60425;-81
2023/12/07 21:19:27;;;;;;;14.80;8.90;;;;;;;6.91;80.05;101430.67;106591;1256;75692;-81
2023/12/07 21:22:01;;;;;;;13.30;7.90;;;;;;;7.06;78.90;101430.26;106648;1254;70235;-81
2023/12/07 21:24:35;;;;;;;15.70;8.00;;;;;;;7.15;78.14;101426.52;106491;1254;72682;-81
2023/12/07 21:27:03;;;;;;;14.40;7.80;;;;;;;7.22;77.38;101428.55;106467;1255;60908;-81
2023/12/07 21:29:37;;;;;;;15.40;9.20;;;;;;;7.28;76.87;101428.32;106471;1257;60379;-81
2023/12/07 21:32:11;;;;;;;15.80;8.50;;;;;;;7.39;75.55;101433.66;106533;1254;71405;-81
2023/12/07 21:34:45;;;;;;;15.20;7.80;;;;;;;7.42;74.92;101433.51;106477;1256;68373;-82
2023/12/07 21:37:13;;;;;;;15.10;8.20;;;;;;;7.28;75.92;101431.70;106623;1253;72688;-81
2023/12/07 21:39:47;;;;;;;17.10;8.90;;;;;;;7.26;76.09;101430.11;106405;1256;60517;-81
2023/12/07 21:42:21;;;;;;;12.90;7.90;;;;;;;7.20;76.59;101430.66;106655;1254;60520;-81
2023/12/07 21:44:49;;;;;;;12.80;7.10;;;;;;;7.27;75.91;101428.95;106522;1251;74095;-81
2023/12/07 21:47:18;;;;;;;13.50;7.50;;;;;;;7.25;76.06;101425.64;106617;1256;67118;-81
2023/12/07 21:49:51;;;;;;;16.30;8.30;;;;;;;7.03;77.44;101423.59;106480;1256;72742;-81
2023/12/07 21:52:26;;;;;;;17.10;8.10;;;;;;;6.68;80.75;101423.98;106500;1256;60396;-82
2023/12/07 21:54:53;;;;;;;17.00;8.90;;;;;;;6.67;81.52;101421.23;106422;1254;60538;-82
2023/12/07 21:57:27;;;;;;;15.40;8.40;;;;;;;6.66;81.36;101420.16;106525;1258;71640;-82
2023/12/07 22:00:04;;;;;;;15.90;8.90;;;;;;;6.72;80.84;101414.89;106552;1257;68358;-79
2023/12/07 22:02:45;;;;;;;11.80;7.20;;;;;;;6.80;80.23;101412.52;106506;1254;72677;-81
2023/12/07 22:05:13;;;;;;;16.20;7.50;;;;;;;6.80;80.05;101409.52;106348;1256;60421;-81
2023/12/07 22:07:47;;;;;;;15.30;8.70;;;;;;;6.81;80.06;101411.13;106678;1256;60536;-81
2023/12/07 22:10:21;;;;;;;15.80;7.70;;;;;;;6.83;79.73;101408.69;106779;1254;72981;-81
2023/12/07 22:13:02;;;;;;;14.80;8.60;;;;;;;6.90;79.37;101409.45;106658;1255;67410;-82
2023/12/07 22:15:30;;;;;;;13.60;7.30;;;;;;;6.94;78.79;101409.87;106430;1254;72635;-82
2023/12/07 22:18:03;;;;;;;13.50;7.10;;;;;;;6.85;79.30;101403.36;106403;1259;60539;-82
2023/12/07 22:20:37;;;;;;;14.00;7.90;;;;;;;6.77;79.72;101402.55;106380;1253;60502;-81
2023/12/07 22:23:11;;;;;;;15.90;8.80;;;;;;;6.75;80.01;101399.39;106462;1256;76396;-80
2023/12/07 22:25:39;;;;;;;16.40;8.10;;;;;;;6.84;79.43;101398.13;106345;1256;68424;-81
2023/12/07 22:28:13;;;;;;;13.30;8.00;;;;;;;6.86;79.19;101398.02;106324;1252;72611;-82
2023/12/07 22:30:47;;;;;;;15.50;8.60;;;;;;;6.78;79.67;101399.30;106464;1256;60357;-81
2023/12/07 22:33:21;;;;;;;15.40;8.40;;;;;;;6.72;80.13;101395.88;106421;1257;60533;-81
2023/12/07 22:35:49;;;;;;;16.00;8.80;;;;;;;6.83;79.47;101394.88;106554;1256;73874;-81
2023/12/07 22:38:23;;;;;;;16.20;9.10;;;;;;;6.94;78.53;101393.14;106370;1254;66816;-81
2023/12/07 22:40:57;;;;;;;16.40;8.60;;;;;;;6.94;78.29;101389.13;106315;1257;72643;-80
2023/12/07 22:43:24;;;;;;;16.00;8.30;;;;;;;6.97;78.01;101393.27;106481;1256;60398;-81
2023/12/07 22:45:55;;;;;;;17.00;8.60;;;;;;;6.92;78.34;101389.29;106505;1252;60538;-81
2023/12/07 22:48:29;;;;;;;17.60;9.60;;;;;;;7.00;77.67;101386.23;106374;1256;72783;-80
2023/12/07 22:51:03;;;;;;;13.30;7.10;;;;;;;6.99;77.52;101385.67;106430;1257;68400;-81
2023/12/07 22:53:31;;;;;;;16.30;8.40;;;;;;;7.05;77.24;101386.54;106538;1254;73139;-82
2023/12/07 22:56:07;;;;;;;17.80;7.50;;;;;;;7.12;76.51;101382.67;106285;1258;60882;-81
2023/12/07 22:58:44;;;;;;;15.40;7.80;;;;;;;7.03;76.74;101382.25;106322;1254;60445;-80
2023/12/07 23:01:17;;;;;;;15.80;8.20;;;;;;;6.94;77.54;101381.02;106358;1257;71858;-81
2023/12/07 23:03:47;;;;;;;13.30;7.40;;;;;;;6.80;78.40;101379.25;106601;1254;66600;-81
2023/12/07 23:06:22;;;;;;;13.40;8.00;;;;;;;6.49;80.97;101377.73;106468;1257;73070;-80
2023/12/07 23:08:57;;;;;;;17.50;8.90;;;;;;;6.41;81.98;101376.73;106385;1257;60508;-80
2023/12/07 23:11:31;;;;;;;16.10;8.10;;;;;;;6.40;82.40;101380.80;106441;1254;60595;-82
2023/12/07 23:14:00;;;;;;;14.20;8.00;;;;;;;6.50;82.07;101377.98;106501;1256;74052;-82
2023/12/07 23:16:36;;;;;;;15.10;8.40;;;;;;;6.55;81.34;101370.85;106514;1254;68713;-81
2023/12/07 23:19:11;;;;;;;17.80;8.70;;;;;;;6.55;81.34;101377.23;106485;1256;70810;-81
2023/12/07 23:21:45;;;;;;;16.00;8.10;;;;;;;6.50;81.83;101376.21;106529;1256;60414;-81
2023/12/07 23:24:14;;;;;;;15.00;8.10;;;;;;;6.46;82.01;101373.89;106420;1257;60309;-82
2023/12/07 23:26:49;;;;;;;16.90;8.70;;;;;;;6.46;82.39;101371.41;106367;1252;72604;-82
2023/12/07 23:29:25;;;;;;;12.70;7.50;;;;;;;6.46;82.41;101369.83;106457;1257;68324;-82
2023/12/07 23:31:52;;;;;;;15.90;8.20;;;;;;;6.45;82.66;101374.18;106251;1257;71382;-82
2023/12/07 23:34:25;;;;;;;16.40;8.30;;;;;;;6.47;82.56;101372.83;106350;1255;60565;-82
2023/12/07 23:37:00;;;;;;;;;;;;;;;6.53;82.28;101374.75;106435;1252;60433;-81
2023/12/07 23:39:35;;;;;;;17.00;7.70;;;;;;;6.43;82.59;101369.36;106356;1256;73875;-82
2023/12/07 23:42:04;;;;;;;14.10;7.50;;;;;;;6.31;83.46;101371.70;106292;1256;67151;-81
2023/12/07 23:44:39;;;;;;;14.80;8.30;;;;;;;6.29;84.13;101373.15;106372;1257;71849;-81
2023/12/07 23:47:14;;;;;;;15.00;8.40;;;;;;;6.37;83.68;101367.40;106358;1257;60533;-81
2023/12/07 23:49:48;;;;;;;16.00;8.30;;;;;;;6.51;82.63;101364.96;106537;1252;60511;-81
2023/12/07 23:52:18;;;;;;;15.80;8.00;;;;;;;6.57;81.72;101364.84;106411;1256;73838;-82
2023/12/07 23:54:53;;;;;;;15.30;7.80;;;;;;;6.43;83.06;101363.60;106329;1257;68403;-81
2023/12/07 23:57:28;;;;;;;15.70;8.00;;;;;;;6.50;82.80;101361.73;106330;1257;71432;-82
